sensor_id;sensor_type;location;lat;lon;timestamp;pressure;altitude;pressure_sealevel;temperature;humidity
47154;BME280;32907;41.412;2.164;2022-09-13T00:01:07;100139.81;;;29.36;53.52
47154;BME280;32907;41.412;2.164;2022-09-13T00:03:35;100114.81;;;29.29;53.54
47154;BME280;32907;41.412;2.164;2022-09-13T00:06:10;100105.84;;;29.35;53.61
47154;BME280;32907;41.412;2.164;2022-09-13T00:08:39;100074.28;;;29.13;53.82
47154;BME280;32907;41.412;2.164;2022-09-13T00:11:20;100103.47;;;29.34;53.18
47154;BME280;32907;41.412;2.164;2022-09-13T00:13:49;100068.63;;;29.06;53.46
47154;BME280;32907;41.412;2.164;2022-09-13T00:16:18;100050.75;;;29.00;53.57
47154;BME280;32907;41.412;2.164;2022-09-13T00:18:47;100095.56;;;29.32;53.31
47154;BME280;32907;41.412;2.164;2022-09-13T00:21:17;100094.75;;;29.32;53.72
47154;BME280;32907;41.412;2.164;2022-09-13T00:23:47;100082.91;;;29.31;53.81
47154;BME280;32907;41.412;2.164;2022-09-13T00:26:21;100079.34;;;29.31;54.48
47154;BME280;32907;41.412;2.164;2022-09-13T00:28:54;100075.00;;;29.30;54.71
47154;BME280;32907;41.412;2.164;2022-09-13T00:31:24;100074.19;;;29.29;54.66
47154;BME280;32907;41.412;2.164;2022-09-13T00:33:53;100070.03;;;29.19;55.41
47154;BME280;32907;41.412;2.164;2022-09-13T00:36:21;100034.75;;;29.09;55.42
47154;BME280;32907;41.412;2.164;2022-09-13T00:38:49;100059.00;;;29.19;55.52
47154;BME280;32907;41.412;2.164;2022-09-13T00:41:18;100057.41;;;29.18;56.06
47154;BME280;32907;41.412;2.164;2022-09-13T00:48:56;100094.47;;;29.17;56.24
47154;BME280;32907;41.412;2.164;2022-09-13T00:51:25;100080.81;;;29.05;56.02
47154;BME280;32907;41.412;2.164;2022-09-13T00:53:54;100115.47;;;29.22;56.45
47154;BME280;32907;41.412;2.164;2022-09-13T00:56:29;100115.84;;;29.20;56.34
47154;BME280;32907;41.412;2.164;2022-09-13T00:59:06;100099.28;;;29.20;56.53
47154;BME280;32907;41.412;2.164;2022-09-13T01:01:45;100110.31;;;29.20;56.64
47154;BME280;32907;41.412;2.164;2022-09-13T01:04:17;100114.22;;;29.19;56.54
47154;BME280;32907;41.412;2.164;2022-09-13T01:06:48;100105.03;;;29.12;56.62
47154;BME280;32907;41.412;2.164;2022-09-13T01:09:16;100070.09;;;28.84;56.55
47154;BME280;32907;41.412;2.164;2022-09-13T01:11:46;100116.97;;;29.19;57.14
47154;BME280;32907;41.412;2.164;2022-09-13T01:14:19;100071.78;;;28.89;57.19
47154;BME280;32907;41.412;2.164;2022-09-13T01:16:49;100104.94;;;29.08;57.13
47154;BME280;32907;41.412;2.164;2022-09-13T01:19:16;100091.72;;;28.98;57.54
47154;BME280;32907;41.412;2.164;2022-09-13T01:27:34;100116.66;;;29.21;58.37
47154;BME280;32907;41.412;2.164;2022-09-13T01:30:21;100112.28;;;29.20;57.98
47154;BME280;32907;41.412;2.164;2022-09-13T01:36:15;100110.31;;;29.20;58.60
47154;BME280;32907;41.412;2.164;2022-09-13T01:42:07;100082.72;;;29.20;58.83
47154;BME280;32907;41.412;2.164;2022-09-13T01:50:18;100054.22;;;29.16;58.71
47154;BME280;32907;41.412;2.164;2022-09-13T01:56:04;100031.56;;;29.07;59.16
47154;BME280;32907;41.412;2.164;2022-09-13T02:01:17;100039.56;;;29.12;59.16
47154;BME280;32907;41.412;2.164;2022-09-13T02:03:54;100021.97;;;29.01;58.91
47154;BME280;32907;41.412;2.164;2022-09-13T02:06:29;99990.94;;;28.88;59.11
47154;BME280;32907;41.412;2.164;2022-09-13T02:09:00;100024.97;;;29.12;58.79
47154;BME280;32907;41.412;2.164;2022-09-13T02:11:29;100029.66;;;29.11;59.27
47154;BME280;32907;41.412;2.164;2022-09-13T02:16:33;100039.09;;;29.10;59.16
47154;BME280;32907;41.412;2.164;2022-09-13T02:19:07;100021.97;;;29.01;59.54
47154;BME280;32907;41.412;2.164;2022-09-13T02:21:40;99997.72;;;28.91;59.07
47154;BME280;32907;41.412;2.164;2022-09-13T02:24:14;99978.19;;;28.80;59.34
47154;BME280;32907;41.412;2.164;2022-09-13T02:26:44;100017.75;;;29.07;59.57
47154;BME280;32907;41.412;2.164;2022-09-13T02:29:16;100005.09;;;28.87;59.19
47154;BME280;32907;41.412;2.164;2022-09-13T02:31:50;100034.31;;;29.07;59.63
47154;BME280;32907;41.412;2.164;2022-09-13T02:34:23;100016.44;;;28.82;59.14
47154;BME280;32907;41.412;2.164;2022-09-13T02:36:54;100046.16;;;29.08;59.46
47154;BME280;32907;41.412;2.164;2022-09-13T02:39:24;100044.56;;;29.07;59.04
47154;BME280;32907;41.412;2.164;2022-09-13T02:42:20;100037.44;;;29.06;59.69
47154;BME280;32907;41.412;2.164;2022-09-13T02:44:52;99986.38;;;28.77;59.34
47154;BME280;32907;41.412;2.164;2022-09-13T02:47:53;100028.75;;;29.04;59.22
47154;BME280;32907;41.412;2.164;2022-09-13T02:55:58;99983.19;;;28.75;60.25
47154;BME280;32907;41.412;2.164;2022-09-13T03:01:07;99995.69;;;28.88;60.20
47154;BME280;32907;41.412;2.164;2022-09-13T03:03:36;99980.19;;;28.83;60.63
47154;BME280;32907;41.412;2.164;2022-09-13T03:06:04;99969.53;;;28.82;60.61
47154;BME280;32907;41.412;2.164;2022-09-13T03:08:32;99922.44;;;28.52;60.86
47154;BME280;32907;41.412;2.164;2022-09-13T03:11:14;100007.47;;;29.04;61.26
47154;BME280;32907;41.412;2.164;2022-09-13T03:20:29;100009.75;;;29.02;61.50
47154;BME280;32907;41.412;2.164;2022-09-13T03:23:20;100016.44;;;29.01;61.78
47154;BME280;32907;41.412;2.164;2022-09-13T03:28:58;100017.63;;;29.00;61.80
47154;BME280;32907;41.412;2.164;2022-09-13T03:31:33;100007.97;;;28.90;61.85
47154;BME280;32907;41.412;2.164;2022-09-13T03:34:09;99990.66;;;28.74;62.20
47154;BME280;32907;41.412;2.164;2022-09-13T03:36:41;100023.13;;;29.00;61.96
47154;BME280;32907;41.412;2.164;2022-09-13T03:42:05;99993.38;;;28.90;62.21
47154;BME280;32907;41.412;2.164;2022-09-13T03:44:38;99993.25;;;28.86;62.03
47154;BME280;32907;41.412;2.164;2022-09-13T03:47:09;100002.00;;;28.88;61.76
47154;BME280;32907;41.412;2.164;2022-09-13T03:49:38;100005.09;;;28.87;61.96
47154;BME280;32907;41.412;2.164;2022-09-13T03:52:06;99984.78;;;28.76;61.76
47154;BME280;32907;41.412;2.164;2022-09-13T03:54:36;99998.63;;;28.79;61.37
47154;BME280;32907;41.412;2.164;2022-09-13T03:57:13;100027.44;;;28.97;61.82
47154;BME280;32907;41.412;2.164;2022-09-13T03:59:49;100025.03;;;28.96;61.50
47154;BME280;32907;41.412;2.164;2022-09-13T04:02:23;100036.09;;;28.96;61.90
47154;BME280;32907;41.412;2.164;2022-09-13T04:04:52;100048.25;;;28.95;61.57
47154;BME280;32907;41.412;2.164;2022-09-13T04:07:21;100009.19;;;28.74;61.70
47154;BME280;32907;41.412;2.164;2022-09-13T04:09:49;100009.97;;;28.74;61.90
47154;BME280;32907;41.412;2.164;2022-09-13T04:12:17;100051.03;;;28.95;62.33
47154;BME280;32907;41.412;2.164;2022-09-13T04:14:47;99993.91;;;28.60;62.16
47154;BME280;32907;41.412;2.164;2022-09-13T04:17:15;100020.72;;;28.79;62.21
47154;BME280;32907;41.412;2.164;2022-09-13T04:19:43;100005.16;;;28.71;62.10
47154;BME280;32907;41.412;2.164;2022-09-13T04:22:14;100039.63;;;28.96;62.45
47154;BME280;32907;41.412;2.164;2022-09-13T04:24:42;100038.84;;;28.96;62.25
47154;BME280;32907;41.412;2.164;2022-09-13T04:27:11;100016.44;;;28.82;62.01
47154;BME280;32907;41.412;2.164;2022-09-13T04:29:39;99983.03;;;28.67;62.18
47154;BME280;32907;41.412;2.164;2022-09-13T04:32:07;100030.09;;;28.94;61.70
47154;BME280;32907;41.412;2.164;2022-09-13T04:34:36;100030.09;;;28.94;61.84
47154;BME280;32907;41.412;2.164;2022-09-13T04:37:03;100044.28;;;28.92;61.44
47154;BME280;32907;41.412;2.164;2022-09-13T04:39:31;100025.56;;;28.86;61.72
47154;BME280;32907;41.412;2.164;2022-09-13T04:41:59;100010.25;;;28.69;61.59
47154;BME280;32907;41.412;2.164;2022-09-13T04:44:28;100031.19;;;28.89;61.31
47154;BME280;32907;41.412;2.164;2022-09-13T04:46:56;99986.06;;;28.62;60.93
47154;BME280;32907;41.412;2.164;2022-09-13T04:49:24;100012.88;;;28.81;61.04
47154;BME280;32907;41.412;2.164;2022-09-13T04:51:52;100014.34;;;28.75;61.71
47154;BME280;32907;41.412;2.164;2022-09-13T04:54:21;99972.59;;;28.57;61.24
47154;BME280;32907;41.412;2.164;2022-09-13T04:56:48;99991.59;;;28.62;61.51
47154;BME280;32907;41.412;2.164;2022-09-13T04:59:16;100031.09;;;28.86;61.14
47154;BME280;32907;41.412;2.164;2022-09-13T05:01:44;99974.25;;;28.42;61.23
47154;BME280;32907;41.412;2.164;2022-09-13T05:04:14;100049.63;;;28.85;60.68
47154;BME280;32907;41.412;2.164;2022-09-13T05:06:43;100008.44;;;28.57;60.87
47154;BME280;32907;41.412;2.164;2022-09-13T05:09:12;100048.81;;;28.85;60.75
47154;BME280;32907;41.412;2.164;2022-09-13T05:11:41;100032.75;;;28.71;60.97
47154;BME280;32907;41.412;2.164;2022-09-13T05:14:10;100039.75;;;28.84;60.75
47154;BME280;32907;41.412;2.164;2022-09-13T05:16:38;99977.22;;;28.34;60.60
47154;BME280;32907;41.412;2.164;2022-09-13T05:19:06;100048.03;;;28.84;60.88
47154;BME280;32907;41.412;2.164;2022-09-13T05:21:34;100049.63;;;28.85;60.19
47154;BME280;32907;41.412;2.164;2022-09-13T05:24:02;99980.41;;;28.36;60.22
47154;BME280;32907;41.412;2.164;2022-09-13T05:26:30;100039.91;;;28.72;60.16
47154;BME280;32907;41.412;2.164;2022-09-13T05:28:59;100015.03;;;28.53;60.04
47154;BME280;32907;41.412;2.164;2022-09-13T05:31:32;100004.75;;;28.50;59.98
47154;BME280;32907;41.412;2.164;2022-09-13T05:34:05;100065.31;;;28.81;60.05
47154;BME280;32907;41.412;2.164;2022-09-13T05:36:33;100048.59;;;28.74;59.57
47154;BME280;32907;41.412;2.164;2022-09-13T05:39:02;100021.78;;;28.55;59.63
47154;BME280;32907;41.412;2.164;2022-09-13T05:41:50;100035.03;;;28.65;59.22
47154;BME280;32907;41.412;2.164;2022-09-13T05:44:18;99998.69;;;28.44;59.33
47154;BME280;32907;41.412;2.164;2022-09-13T05:46:46;99973.25;;;28.15;57.72
47154;BME280;32907;41.412;2.164;2022-09-13T05:49:15;100053.59;;;28.68;57.23
47154;BME280;32907;41.412;2.164;2022-09-13T05:51:42;100051.28;;;28.70;57.38
47154;BME280;32907;41.412;2.164;2022-09-13T05:54:11;100045.41;;;28.72;57.44
47154;BME280;32907;41.412;2.164;2022-09-13T05:56:39;100069.31;;;28.84;57.29
47154;BME280;32907;41.412;2.164;2022-09-13T05:59:11;100047.81;;;28.74;57.26
47154;BME280;32907;41.412;2.164;2022-09-13T06:01:39;100051.88;;;28.80;56.68
47154;BME280;32907;41.412;2.164;2022-09-13T06:04:07;100075.34;;;28.89;57.41
47154;BME280;32907;41.412;2.164;2022-09-13T06:06:35;100073.84;;;28.92;57.00
47154;BME280;32907;41.412;2.164;2022-09-13T06:09:03;100063.22;;;28.94;56.97
47154;BME280;32907;41.412;2.164;2022-09-13T06:11:33;100037.25;;;28.79;57.40
47154;BME280;32907;41.412;2.164;2022-09-13T06:14:01;100049.56;;;28.82;57.66
47154;BME280;32907;41.412;2.164;2022-09-13T06:16:29;100031.09;;;28.66;57.53
47154;BME280;32907;41.412;2.164;2022-09-13T06:18:58;99984.75;;;28.37;58.05
47154;BME280;32907;41.412;2.164;2022-09-13T06:21:26;100007.88;;;28.48;58.04
47154;BME280;32907;41.412;2.164;2022-09-13T06:23:56;100058.91;;;28.77;57.77
47154;BME280;32907;41.412;2.164;2022-09-13T06:26:26;100059.84;;;28.85;57.58
47154;BME280;32907;41.412;2.164;2022-09-13T06:28:55;100071.78;;;28.89;57.41
47154;BME280;32907;41.412;2.164;2022-09-13T06:31:25;100030.16;;;28.59;57.79
47154;BME280;32907;41.412;2.164;2022-09-13T06:33:59;100085.13;;;28.87;57.59
47154;BME280;32907;41.412;2.164;2022-09-13T06:36:28;100092.19;;;28.84;57.57
47154;BME280;32907;41.412;2.164;2022-09-13T06:38:56;100081.78;;;28.78;57.70
47154;BME280;32907;41.412;2.164;2022-09-13T06:41:27;100043.06;;;28.55;57.87
47154;BME280;32907;41.412;2.164;2022-09-13T06:43:56;100082.66;;;28.82;58.23
47154;BME280;32907;41.412;2.164;2022-09-13T06:46:29;100080.97;;;28.77;58.11
47154;BME280;32907;41.412;2.164;2022-09-13T06:49:05;100097.69;;;28.84;57.79
47154;BME280;32907;41.412;2.164;2022-09-13T06:51:34;100103.22;;;28.84;58.07
47154;BME280;32907;41.412;2.164;2022-09-13T06:54:02;100090.69;;;28.71;58.13
47154;BME280;32907;41.412;2.164;2022-09-13T06:56:32;100111.50;;;28.84;58.24
47154;BME280;32907;41.412;2.164;2022-09-13T06:59:05;100095.56;;;28.78;58.04
47154;BME280;32907;41.412;2.164;2022-09-13T07:01:39;100100.22;;;28.74;57.78
47154;BME280;32907;41.412;2.164;2022-09-13T07:04:14;100102.56;;;28.72;58.29
47154;BME280;32907;41.412;2.164;2022-09-13T07:06:45;100107.06;;;28.80;58.43
47154;BME280;32907;41.412;2.164;2022-09-13T07:09:16;100111.06;;;28.82;58.04
47154;BME280;32907;41.412;2.164;2022-09-13T07:11:45;100104.38;;;28.83;58.34
47154;BME280;32907;41.412;2.164;2022-09-13T07:14:16;100082.34;;;28.67;58.10
47154;BME280;32907;41.412;2.164;2022-09-13T07:16:44;100103.84;;;28.78;58.52
47154;BME280;32907;41.412;2.164;2022-09-13T07:19:18;100104.44;;;28.87;58.22
47154;BME280;32907;41.412;2.164;2022-09-13T07:21:46;100086.59;;;28.81;58.55
47154;BME280;32907;41.412;2.164;2022-09-13T07:24:16;100097.78;;;28.88;58.46
47154;BME280;32907;41.412;2.164;2022-09-13T07:26:44;100104.91;;;28.89;58.09
47154;BME280;32907;41.412;2.164;2022-09-13T07:29:15;100107.31;;;28.90;58.34
47154;BME280;32907;41.412;2.164;2022-09-13T07:31:45;100103.03;;;28.93;58.06
47154;BME280;32907;41.412;2.164;2022-09-13T07:34:18;100099.09;;;28.94;58.19
47154;BME280;32907;41.412;2.164;2022-09-13T07:36:47;100055.94;;;28.66;57.93
47154;BME280;32907;41.412;2.164;2022-09-13T07:39:15;100081.41;;;28.79;58.15
47154;BME280;32907;41.412;2.164;2022-09-13T07:41:49;100087.03;;;28.83;57.83
47154;BME280;32907;41.412;2.164;2022-09-13T07:44:17;100092.03;;;28.77;58.69
47154;BME280;32907;41.412;2.164;2022-09-13T07:46:45;100119.38;;;29.02;58.32
47154;BME280;32907;41.412;2.164;2022-09-13T07:49:15;100114.59;;;28.98;58.15
47154;BME280;32907;41.412;2.164;2022-09-13T07:51:44;100126.97;;;29.05;58.35
47154;BME280;32907;41.412;2.164;2022-09-13T07:54:14;100086.34;;;28.70;58.50
47154;BME280;32907;41.412;2.164;2022-09-13T07:56:42;100101.56;;;28.80;58.37
47154;BME280;32907;41.412;2.164;2022-09-13T07:59:12;100151.06;;;29.08;58.82
47154;BME280;32907;41.412;2.164;2022-09-13T08:01:48;100141.94;;;29.04;58.43
47154;BME280;32907;41.412;2.164;2022-09-13T08:04:18;100146.19;;;29.01;58.62
47154;BME280;32907;41.412;2.164;2022-09-13T08:06:47;100148.16;;;29.01;58.96
47154;BME280;32907;41.412;2.164;2022-09-13T08:09:16;100130.91;;;28.88;58.77
47154;BME280;32907;41.412;2.164;2022-09-13T08:11:50;100108.16;;;28.75;59.03
47154;BME280;32907;41.412;2.164;2022-09-13T08:14:21;100137.31;;;28.92;59.10
47154;BME280;32907;41.412;2.164;2022-09-13T08:16:50;100144.06;;;28.94;59.68
47154;BME280;32907;41.412;2.164;2022-09-13T08:19:18;100160.31;;;29.15;59.50
47154;BME280;32907;41.412;2.164;2022-09-13T08:21:46;100150.00;;;29.12;59.40
47154;BME280;32907;41.412;2.164;2022-09-13T08:24:19;100171.88;;;29.21;58.95
47154;BME280;32907;41.412;2.164;2022-09-13T08:26:48;100178.91;;;29.18;59.73
47154;BME280;32907;41.412;2.164;2022-09-13T08:29:16;100102.66;;;28.59;59.47
47154;BME280;32907;41.412;2.164;2022-09-13T08:31:44;100198.22;;;29.18;59.37
47154;BME280;32907;41.412;2.164;2022-09-13T08:34:13;100165.94;;;29.03;59.56
47154;BME280;32907;41.412;2.164;2022-09-13T08:36:41;100143.09;;;28.87;59.81
47154;BME280;32907;41.412;2.164;2022-09-13T08:39:11;100086.56;;;28.61;59.27
47154;BME280;32907;41.412;2.164;2022-09-13T08:47:39;100139.81;;;29.16;58.78
47154;BME280;32907;41.412;2.164;2022-09-13T08:50:21;100105.88;;;29.16;58.85
47154;BME280;32907;41.412;2.164;2022-09-13T09:01:24;99991.88;;;29.15;58.17
47154;BME280;32907;41.412;2.164;2022-09-13T09:06:24;99990.34;;;29.18;58.39
47154;BME280;32907;41.412;2.164;2022-09-13T09:09:02;100000.66;;;29.21;58.47
47154;BME280;32907;41.412;2.164;2022-09-13T09:11:59;99996.38;;;29.23;58.46
47154;BME280;32907;41.412;2.164;2022-09-13T09:14:31;100003.06;;;29.22;58.57
47154;BME280;32907;41.412;2.164;2022-09-13T09:17:10;100000.13;;;29.12;58.07
47154;BME280;32907;41.412;2.164;2022-09-13T09:22:34;100022.06;;;29.27;58.46
47154;BME280;32907;41.412;2.164;2022-09-13T09:25:03;100022.06;;;29.27;58.27
47154;BME280;32907;41.412;2.164;2022-09-13T09:27:31;100026.44;;;29.29;58.40
47154;BME280;32907;41.412;2.164;2022-09-13T09:29:59;99985.22;;;28.97;58.20
47154;BME280;32907;41.412;2.164;2022-09-13T09:33:04;100050.56;;;29.32;58.06
47154;BME280;32907;41.412;2.164;2022-09-13T09:38:46;100045.66;;;29.21;57.96
47154;BME280;32907;41.412;2.164;2022-09-13T09:44:02;100065.84;;;29.06;57.95
47154;BME280;32907;41.412;2.164;2022-09-13T09:46:36;100083.50;;;29.21;57.83
47154;BME280;32907;41.412;2.164;2022-09-13T09:49:13;100111.38;;;29.35;57.80
47154;BME280;32907;41.412;2.164;2022-09-13T09:52:26;100116.56;;;29.37;57.99
47154;BME280;32907;41.412;2.164;2022-09-13T09:55:08;100124.84;;;29.37;57.95
47154;BME280;32907;41.412;2.164;2022-09-13T10:00:25;100132.75;;;29.38;57.56
47154;BME280;32907;41.412;2.164;2022-09-13T10:02:56;100114.75;;;29.25;57.99
47154;BME280;32907;41.412;2.164;2022-09-13T10:05:25;100118.28;;;29.25;57.56
47154;BME280;32907;41.412;2.164;2022-09-13T10:08:00;100123.09;;;29.29;57.49
47154;BME280;32907;41.412;2.164;2022-09-13T10:10:42;100142.28;;;29.41;57.56
47154;BME280;32907;41.412;2.164;2022-09-13T10:13:18;100143.88;;;29.42;56.95
47154;BME280;32907;41.412;2.164;2022-09-13T10:18:36;100105.75;;;29.28;57.26
47154;BME280;32907;41.412;2.164;2022-09-13T10:23:47;100112.63;;;29.38;57.39
47154;BME280;32907;41.412;2.164;2022-09-13T10:26:20;100128.03;;;29.39;57.07
47154;BME280;32907;41.412;2.164;2022-09-13T10:29:07;100129.78;;;29.47;56.70
47154;BME280;32907;41.412;2.164;2022-09-13T10:31:38;100090.53;;;29.18;56.88
47154;BME280;32907;41.412;2.164;2022-09-13T10:34:17;100146.44;;;29.50;55.71
47154;BME280;32907;41.412;2.164;2022-09-13T10:37:00;100102.47;;;29.22;55.91
47154;BME280;32907;41.412;2.164;2022-09-13T10:39:31;100104.13;;;29.27;55.09
47154;BME280;32907;41.412;2.164;2022-09-13T10:42:04;100139.41;;;29.53;55.29
47154;BME280;32907;41.412;2.164;2022-09-13T10:44:40;100100.06;;;29.21;53.89
47154;BME280;32907;41.412;2.164;2022-09-13T10:47:13;100139.03;;;29.55;53.99
47154;BME280;32907;41.412;2.164;2022-09-13T10:49:52;100127.56;;;29.52;53.76
47154;BME280;32907;41.412;2.164;2022-09-13T10:52:51;100131.13;;;29.53;51.60
47154;BME280;32907;41.412;2.164;2022-09-13T10:57:49;100121.56;;;29.31;51.36
47154;BME280;32907;41.412;2.164;2022-09-13T11:16:28;100142.72;;;29.62;49.69
47154;BME280;32907;41.412;2.164;2022-09-13T11:24:13;100112.94;;;29.52;49.11
47154;BME280;32907;41.412;2.164;2022-09-13T11:29:54;100120.84;;;29.53;47.76
47154;BME280;32907;41.412;2.164;2022-09-13T11:33:29;100107.84;;;29.54;47.62
47154;BME280;32907;41.412;2.164;2022-09-13T11:36:09;100109.81;;;29.53;47.62
47154;BME280;32907;41.412;2.164;2022-09-13T11:50:44;100092.97;;;29.43;46.17
47154;BME280;32907;41.412;2.164;2022-09-13T11:56:02;100143.75;;;29.54;45.55
47154;BME280;32907;41.412;2.164;2022-09-13T11:58:59;100141.00;;;29.54;44.42
47154;BME280;32907;41.412;2.164;2022-09-13T12:01:44;100127.44;;;29.49;44.72
47154;BME280;32907;41.412;2.164;2022-09-13T12:04:44;100077.47;;;29.15;45.00
47154;BME280;32907;41.412;2.164;2022-09-13T12:07:15;100105.38;;;29.30;45.07
47154;BME280;32907;41.412;2.164;2022-09-13T12:09:52;100143.38;;;29.56;44.96
47154;BME280;32907;41.412;2.164;2022-09-13T12:12:25;100044.97;;;28.89;45.71
47154;BME280;32907;41.412;2.164;2022-09-13T12:14:59;100110.59;;;29.35;45.24
47154;BME280;32907;41.412;2.164;2022-09-13T12:17:43;100124.41;;;29.54;45.02
47154;BME280;32907;41.412;2.164;2022-09-13T12:20:33;100071.34;;;29.25;45.02
47154;BME280;32907;41.412;2.164;2022-09-13T12:23:04;100071.38;;;29.06;45.32
47154;BME280;32907;41.412;2.164;2022-09-13T12:26:44;100100.84;;;29.41;43.92
47154;BME280;32907;41.412;2.164;2022-09-13T12:28:52;100117.31;;;29.53;44.06
47154;BME280;32907;41.412;2.164;2022-09-13T12:31:24;100120.06;;;29.53;44.03
47154;BME280;32907;41.412;2.164;2022-09-13T12:33:52;100118.09;;;29.53;43.87
47154;BME280;32907;41.412;2.164;2022-09-13T12:41:57;100118.47;;;29.52;42.43
47154;BME280;32907;41.412;2.164;2022-09-13T12:44:49;100112.56;;;29.53;43.73
47154;BME280;32907;41.412;2.164;2022-09-13T12:53:59;100112.63;;;29.57;42.10
47154;BME280;32907;41.412;2.164;2022-09-13T13:02:35;100063.28;;;29.36;41.38
47154;BME280;32907;41.412;2.164;2022-09-13T13:05:29;100088.50;;;29.54;41.75
47154;BME280;32907;41.412;2.164;2022-09-13T13:08:01;100049.19;;;29.22;40.72
47154;BME280;32907;41.412;2.164;2022-09-13T13:10:35;100101.28;;;29.43;40.52
47154;BME280;32907;41.412;2.164;2022-09-13T13:13:20;100093.31;;;29.38;40.37
47154;BME280;32907;41.412;2.164;2022-09-13T13:18:26;100013.75;;;28.85;41.02
47154;BME280;32907;41.412;2.164;2022-09-13T13:23:31;100096.50;;;29.40;41.23
47154;BME280;32907;41.412;2.164;2022-09-13T13:33:54;100081.09;;;29.39;42.02
47154;BME280;32907;41.412;2.164;2022-09-13T13:36:26;100084.63;;;29.39;41.64
47154;BME280;32907;41.412;2.164;2022-09-13T13:38:55;100098.81;;;29.38;41.15
47154;BME280;32907;41.412;2.164;2022-09-13T13:46:37;100058.75;;;29.05;41.12
47154;BME280;32907;41.412;2.164;2022-09-13T13:59:55;100121.34;;;29.59;41.46
47154;BME280;32907;41.412;2.164;2022-09-13T14:03:15;100107.09;;;29.57;40.10
47154;BME280;32907;41.412;2.164;2022-09-13T14:05:45;100123.94;;;29.71;38.56
47154;BME280;32907;41.412;2.164;2022-09-13T14:17:46;100134.25;;;29.74;37.95
47154;BME280;32907;41.412;2.164;2022-09-13T14:19:49;100131.19;;;29.79;39.02
47154;BME280;32907;41.412;2.164;2022-09-13T14:22:21;100134.38;;;29.81;39.30
47154;BME280;32907;41.412;2.164;2022-09-13T14:24:55;100104.84;;;29.63;38.60
47154;BME280;32907;41.412;2.164;2022-09-13T14:27:33;100104.19;;;29.69;38.15
47154;BME280;32907;41.412;2.164;2022-09-13T14:30:15;100132.97;;;29.91;39.17
47154;BME280;32907;41.412;2.164;2022-09-13T14:32:50;100081.81;;;29.55;38.87
47154;BME280;32907;41.412;2.164;2022-09-13T14:37:53;100148.41;;;29.92;39.05
47154;BME280;32907;41.412;2.164;2022-09-13T14:40:26;100134.75;;;29.80;39.15
47154;BME280;32907;41.412;2.164;2022-09-13T14:42:55;100134.16;;;29.90;38.39
47154;BME280;32907;41.412;2.164;2022-09-13T14:45:27;100135.97;;;29.83;38.51
47154;BME280;32907;41.412;2.164;2022-09-13T14:48:01;100138.75;;;29.83;38.87
47154;BME280;32907;41.412;2.164;2022-09-13T14:50:35;100101.66;;;29.61;38.74
47154;BME280;32907;41.412;2.164;2022-09-13T14:53:05;100126.34;;;29.73;39.16
47154;BME280;32907;41.412;2.164;2022-09-13T14:55:37;100146.19;;;29.78;39.26
47154;BME280;32907;41.412;2.164;2022-09-13T14:58:20;100126.19;;;29.66;39.18
47154;BME280;32907;41.412;2.164;2022-09-13T15:00:58;100045.50;;;29.14;38.69
47154;BME280;32907;41.412;2.164;2022-09-13T15:03:27;99881.81;;;27.94;38.89
47154;BME280;32907;41.412;2.164;2022-09-13T15:05:57;100146.00;;;29.68;39.61
47154;BME280;32907;41.412;2.164;2022-09-13T15:11:01;100120.91;;;29.57;39.60
47154;BME280;32907;41.412;2.164;2022-09-13T15:13:29;100110.59;;;29.54;39.50
47154;BME280;32907;41.412;2.164;2022-09-13T15:15:58;100157.84;;;29.68;39.83
47154;BME280;32907;41.412;2.164;2022-09-13T15:18:30;100160.16;;;29.66;39.69
47154;BME280;32907;41.412;2.164;2022-09-13T15:21:15;100154.38;;;29.52;39.36
47154;BME280;32907;41.412;2.164;2022-09-13T15:23:50;100155.06;;;29.49;39.37
47154;BME280;32907;41.412;2.164;2022-09-13T15:26:24;100098.25;;;29.29;40.20
47154;BME280;32907;41.412;2.164;2022-09-13T15:28:53;100164.84;;;29.62;40.43
47154;BME280;32907;41.412;2.164;2022-09-13T15:31:25;100175.47;;;29.60;39.88
47154;BME280;32907;41.412;2.164;2022-09-13T15:36:40;100153.63;;;29.55;38.83
47154;BME280;32907;41.412;2.164;2022-09-13T15:41:40;100128.34;;;29.53;40.42
47154;BME280;32907;41.412;2.164;2022-09-13T15:44:17;100144.13;;;29.52;40.70
47154;BME280;32907;41.412;2.164;2022-09-13T15:46:53;100098.41;;;29.16;40.87
47154;BME280;32907;41.412;2.164;2022-09-13T15:49:23;100084.28;;;29.02;41.40
47154;BME280;32907;41.412;2.164;2022-09-13T15:51:58;100093.81;;;29.24;41.61
47154;BME280;32907;41.412;2.164;2022-09-13T15:54:37;100033.38;;;29.00;41.20
47154;BME280;32907;41.412;2.164;2022-09-13T15:57:20;100119.25;;;29.52;41.02
47154;BME280;32907;41.412;2.164;2022-09-13T15:59:48;100126.75;;;29.52;41.37
47154;BME280;32907;41.412;2.164;2022-09-13T16:02:24;100109.00;;;29.53;41.70
47154;BME280;32907;41.412;2.164;2022-09-13T16:04:54;100059.44;;;29.21;41.54
47154;BME280;32907;41.412;2.164;2022-09-13T16:07:23;100076.72;;;29.38;41.62
47154;BME280;32907;41.412;2.164;2022-09-13T16:09:52;100100.63;;;29.49;41.77
47154;BME280;32907;41.412;2.164;2022-09-13T16:12:21;100060.03;;;29.11;41.75
47154;BME280;32907;41.412;2.164;2022-09-13T16:14:51;100111.47;;;29.39;41.54
47154;BME280;32907;41.412;2.164;2022-09-13T16:17:25;100081.38;;;29.34;41.76
47154;BME280;32907;41.412;2.164;2022-09-13T16:19:56;100120.78;;;29.50;40.64
47154;BME280;32907;41.412;2.164;2022-09-13T16:22:24;100045.56;;;29.18;41.20
47154;BME280;32907;41.412;2.164;2022-09-13T16:24:52;99999.50;;;29.03;41.53
47154;BME280;32907;41.412;2.164;2022-09-13T16:27:20;99936.56;;;28.69;40.94
47154;BME280;32907;41.412;2.164;2022-09-13T16:29:47;99961.53;;;28.77;41.20
47154;BME280;32907;41.412;2.164;2022-09-13T16:32:15;99808.41;;;28.05;40.93
47154;BME280;32907;41.412;2.164;2022-09-13T16:34:43;99978.72;;;29.28;40.94